Time;durP1;ratioP1;P1;durP2;ratioP2;P2;SDS_P1;SDS_P2;PMS_P1;PMS_P2;Temp;Humidity;BMP_temperature;BMP_pressure;BME280_temperature;BME280_humidity;BME280_pressure;Samples;Min_cycle;Max_cycle;Signal;HPM_P1;HPM_P2
2024/01/16 00:01:23;;;;;;;;;;;;;;;4.76;100.00;100439.56;5000461;28;933;-81
2024/01/16 00:03:49;;;;;;;;;;;;;;;4.75;100.00;100442.34;5002631;28;1890;-82
2024/01/16 00:06:15;;;;;;;;;;;;;;;4.82;100.00;100446.31;5003004;28;1201;-82
2024/01/16 00:08:41;;;;;;;;;;;;;;;4.74;100.00;100435.31;5003885;28;915;-82
2024/01/16 00:11:07;;;;;;;;;;;;;;;4.70;100.00;100439.94;5003542;28;876;-82
2024/01/16 00:13:33;;;;;;;;;;;;;;;4.71;100.00;100436.34;5004003;28;837;-81
2024/01/16 00:16:02;;;;;;;;;;;;;;;4.66;100.00;100434.94;5000620;28;1201;-82
2024/01/16 00:18:28;;;;;;;;;;;;;;;4.58;100.00;100433.59;5001633;28;868;-82
2024/01/16 00:20:54;;;;;;;;;;;;;;;4.56;100.00;100435.50;5000623;28;851;-81
2024/01/16 00:23:20;;;;;;;;;;;;;;;4.48;100.00;100427.16;5002663;28;1898;-82
2024/01/16 00:25:46;;;;;;;;;;;;;;;4.44;100.00;100425.66;5002650;28;1170;-82
2024/01/16 00:28:12;;;;;;;;;;;;;;;4.42;100.00;100432.84;5004443;28;754;-82
2024/01/16 00:30:38;;;;;;;;;;;;;;;4.47;100.00;100451.16;5004263;28;797;-82
2024/01/16 00:33:04;;;;;;;;;;;;;;;4.32;100.00;100447.63;5004550;28;868;-82
2024/01/16 00:35:30;;;;;;;;;;;;;;;4.41;100.00;100441.75;5004313;28;1272;-82
2024/01/16 00:37:56;;;;;;;;;;;;;;;4.46;100.00;100449.47;5001689;28;884;-82
2024/01/16 00:40:22;;;;;;;;;;;;;;;4.51;100.00;100460.63;5000696;28;746;-81
2024/01/16 00:42:48;;;;;;;;;;;;;;;4.51;100.00;100469.44;4998774;28;1952;-81
2024/01/16 00:45:14;;;;;;;;;;;;;;;4.51;100.00;100471.25;4998508;28;849;-81
2024/01/16 00:47:41;;;;;;;;;;;;;;;4.48;100.00;100476.75;4998780;28;770;-81
2024/01/16 00:50:09;;;;;;;;;;;;;;;4.46;100.00;100468.03;5001112;28;813;-81
2024/01/16 00:52:35;;;;;;;;;;;;;;;4.36;100.00;100478.38;5002177;28;884;-82
2024/01/16 00:55:01;;;;;;;;;;;;;;;4.39;100.00;100475.53;5002436;28;840;-82
2024/01/16 00:57:27;;;;;;;;;;;;;;;4.25;100.00;100467.56;5005141;28;1178;-82
2024/01/16 00:59:52;;;;;;;;;;;;;;;4.22;100.00;100476.53;5003631;28;850;-81
2024/01/16 01:02:19;;;;;;;;;;;;;;;4.21;100.00;100487.25;5004240;28;1922;-81
2024/01/16 01:04:44;;;;;;;;;;;;;;;4.18;100.00;100488.28;5003751;28;821;-82
2024/01/16 01:07:15;;;;;;;;;;;;;;;4.17;100.00;100480.44;5004304;28;1292;-81
2024/01/16 01:09:42;;;;;;;;;;;;;;;4.19;100.00;100484.69;5005496;28;664;-82
2024/01/16 01:12:08;;;;;;;;;;;;;;;4.24;100.00;100497.72;5004345;28;809;-81
2024/01/16 01:14:35;;;;;;;;;;;;;;;4.17;100.00;100489.25;5006057;28;1093;-82
2024/01/16 01:17:01;;;;;;;;;;;;;;;3.92;100.00;100494.28;5006834;28;1178;-82
2024/01/16 01:19:27;;;;;;;;;;;;;;;4.04;100.00;100490.94;5003781;28;829;-81
2024/01/16 01:21:53;;;;;;;;;;;;;;;3.92;100.00;100496.94;5004661;28;888;-81
2024/01/16 01:24:19;;;;;;;;;;;;;;;3.93;100.00;100494.22;5002882;28;1979;-82
2024/01/16 01:26:45;;;;;;;;;;;;;;;3.94;100.00;100485.31;5001531;28;1178;-82
2024/01/16 01:29:11;;;;;;;;;;;;;;;3.93;100.00;100490.69;5002072;28;939;-82
2024/01/16 01:31:37;;;;;;;;;;;;;;;3.96;100.00;100498.47;5006214;28;817;-82
2024/01/16 01:34:04;;;;;;;;;;;;;;;3.92;100.00;100496.94;5004340;28;851;-81
2024/01/16 01:36:30;;;;;;;;;;;;;;;4.03;100.00;100497.16;5016399;28;1193;-82
2024/01/16 01:38:56;;;;;;;;;;;;;;;3.93;100.00;100510.13;5019502;28;790;-82
2024/01/16 01:41:22;;;;;;;;;;;;;;;4.03;100.00;100503.34;5017777;28;1086;-82
2024/01/16 01:43:48;;;;;;;;;;;;;;;3.90;100.00;100497.03;5014975;28;1862;-81
2024/01/16 01:46:21;;;;;;;;;;;;;;;3.89;100.00;100497.13;5001021;28;1174;-81
2024/01/16 01:48:48;;;;;;;;;;;;;;;3.88;100.00;100504.22;5001301;28;943;-81
2024/01/16 01:51:18;;;;;;;;;;;;;;;3.93;100.00;100504.81;5000580;28;862;-82
2024/01/16 01:53:46;;;;;;;;;;;;;;;3.93;100.00;100511.91;5017155;28;888;-82
2024/01/16 01:56:15;;;;;;;;;;;;;;;3.85;100.00;100519.47;5001260;28;1308;-81
2024/01/16 01:58:44;;;;;;;;;;;;;;;3.73;100.00;100519.22;5002415;28;824;-82
2024/01/16 02:01:11;;;;;;;;;;;;;;;3.78;100.00;100526.06;5001319;28;813;-81
2024/01/16 02:03:43;;;;;;;;;;;;;;;3.87;100.00;100531.69;5000583;28;1960;-81
2024/01/16 02:06:10;;;;;;;;;;;;;;;3.93;100.00;100528.72;4999852;28;1351;-81
2024/01/16 02:08:36;;;;;;;;;;;;;;;3.95;100.00;100529.47;5002242;28;913;-81
2024/01/16 02:11:02;;;;;;;;;;;;;;;3.92;100.00;100542.88;5016922;28;884;-81
2024/01/16 02:13:28;;;;;;;;;;;;;;;3.98;100.00;100541.69;5001879;28;812;-81
2024/01/16 02:15:54;;;;;;;;;;;;;;;3.96;100.00;100536.47;5016083;28;1368;-81
2024/01/16 02:18:20;;;;;;;;;;;;;;;3.92;100.00;100550.84;5000468;28;1005;-81
2024/01/16 02:20:47;;;;;;;;;;;;;;;3.86;100.00;100548.56;5002287;28;793;-82
2024/01/16 02:23:14;;;;;;;;;;;;;;;3.91;100.00;100554.44;5002220;28;1887;-81
2024/01/16 02:25:44;;;;;;;;;;;;;;;3.87;100.00;100546.78;5001488;28;1162;-82
2024/01/16 02:28:10;;;;;;;;;;;;;;;3.92;100.00;100550.84;5001285;28;790;-81
2024/01/16 02:30:36;;;;;;;;;;;;;;;3.90;100.00;100557.19;5000906;28;813;-81
2024/01/16 02:33:03;;;;;;;;;;;;;;;3.83;100.00;100569.94;5000878;28;912;-81
2024/01/16 02:35:29;;;;;;;;;;;;;;;3.88;100.00;100575.00;5000125;28;1229;-81
2024/01/16 02:37:55;;;;;;;;;;;;;;;3.81;100.00;100563.88;5001185;28;809;-81
2024/01/16 02:40:21;;;;;;;;;;;;;;;3.92;100.00;100573.88;5000323;28;931;-81
2024/01/16 02:42:47;;;;;;;;;;;;;;;3.95;100.00;100577.22;5000483;28;1963;-81
2024/01/16 02:45:13;;;;;;;;;;;;;;;3.96;100.00;100581.59;4999514;28;856;-82
2024/01/16 02:47:39;;;;;;;;;;;;;;;4.00;100.00;100575.16;5000379;28;1296;-81
2024/01/16 02:50:05;;;;;;;;;;;;;;;4.02;100.00;100573.25;5000598;28;908;-81
2024/01/16 02:52:31;;;;;;;;;;;;;;;4.02;100.00;100583.88;5015715;28;903;-81
2024/01/16 02:54:57;;;;;;;;;;;;;;;3.94;100.00;100578.19;4999839;28;832;-81
2024/01/16 02:57:23;;;;;;;;;;;;;;;3.90;100.00;100575.78;5000366;28;1254;-81
2024/01/16 02:59:49;;;;;;;;;;;;;;;3.91;100.00;100574.81;4999332;28;861;-81
2024/01/16 03:02:15;;;;;;;;;;;;;;;3.88;100.00;100581.16;5000445;28;817;-81
2024/01/16 03:04:41;;;;;;;;;;;;;;;3.85;100.00;100573.41;4999791;28;1958;-81
2024/01/16 03:07:07;;;;;;;;;;;;;;;3.83;100.00;100575.25;4999950;28;1217;-81
2024/01/16 03:09:33;;;;;;;;;;;;;;;3.86;100.00;100580.41;4999915;28;745;-81
2024/01/16 03:12:00;;;;;;;;;;;;;;;3.80;100.00;100569.28;4999550;28;833;-81
2024/01/16 03:14:25;;;;;;;;;;;;;;;3.81;100.00;100571.84;4999411;28;839;-82
2024/01/16 03:16:51;;;;;;;;;;;;;;;3.77;100.00;100566.81;5000100;28;1308;-81
2024/01/16 03:19:17;;;;;;;;;;;;;;;3.79;100.00;100575.53;5000129;28;895;-81
2024/01/16 03:21:44;;;;;;;;;;;;;;;3.77;100.00;100569.47;4999515;28;737;-81
2024/01/16 03:24:10;;;;;;;;;;;;;;;3.67;100.00;100572.63;5000250;28;1942;-81
2024/01/16 03:26:38;;;;;;;;;;;;;;;3.73;100.00;100576.72;4999987;28;1259;-81
2024/01/16 03:29:04;;;;;;;;;;;;;;;3.70;100.00;100577.75;5000081;28;876;-82
2024/01/16 03:31:30;;;;;;;;;;;;;;;3.73;100.00;100580.22;4999955;28;966;-81
2024/01/16 03:33:56;;;;;;;;;;;;;;;3.70;100.00;100572.44;5000003;28;817;-81
2024/01/16 03:36:23;;;;;;;;;;;;;;;3.65;100.00;100566.56;4998848;28;1284;-81
2024/01/16 03:38:49;;;;;;;;;;;;;;;3.67;100.00;100577.09;4998654;28;822;-81
2024/01/16 03:41:15;;;;;;;;;;;;;;;3.68;100.00;100582.31;4999950;28;932;-81
2024/01/16 03:43:41;;;;;;;;;;;;;;;3.63;100.00;100579.03;4998988;28;1957;-81
2024/01/16 03:46:07;;;;;;;;;;;;;;;3.67;100.00;100579.72;4998285;28;1280;-81
2024/01/16 03:48:33;;;;;;;;;;;;;;;3.71;100.00;100576.81;4999689;28;833;-81
2024/01/16 03:50:59;;;;;;;;;;;;;;;3.60;100.00;100575.72;4999301;28;835;-81
2024/01/16 03:53:25;;;;;;;;;;;;;;;3.70;100.00;100579.56;4999444;28;809;-81
2024/01/16 03:55:51;;;;;;;;;;;;;;;3.69;100.00;100568.09;4997945;28;1268;-82
2024/01/16 03:58:17;;;;;;;;;;;;;;;3.57;100.00;100567.94;4999434;28;859;-81
2024/01/16 04:00:44;;;;;;;;;;;;;;;3.68;100.00;100576.13;4999080;28;801;-81
2024/01/16 04:03:11;;;;;;;;;;;;;;;3.67;100.00;100571.78;5014325;28;1968;-81
2024/01/16 04:05:37;;;;;;;;;;;;;;;3.64;100.00;100564.84;4998919;28;1183;-81
2024/01/16 04:08:03;;;;;;;;;;;;;;;3.62;100.00;100571.16;4999880;28;567;-82
2024/01/16 04:10:29;;;;;;;;;;;;;;;3.62;100.00;100566.72;4999116;28;829;-81
2024/01/16 04:12:55;;;;;;;;;;;;;;;3.58;100.00;100567.00;4998083;28;895;-81
2024/01/16 04:15:21;;;;;;;;;;;;;;;3.62;100.00;100566.72;4998134;28;1265;-81
2024/01/16 04:17:47;;;;;;;;;;;;;;;3.59;100.00;100564.25;4999136;28;907;-81
2024/01/16 04:20:13;;;;;;;;;;;;;;;3.19;100.00;100570.03;4999562;28;746;-81
2024/01/16 04:22:39;;;;;;;;;;;;;;;3.32;100.00;100568.41;4999479;28;812;-81
2024/01/16 04:25:06;;;;;;;;;;;;;;;3.35;100.00;100558.53;5001256;28;1886;-81
2024/01/16 04:27:32;;;;;;;;;;;;;;;3.33;100.00;100555.06;5002228;28;1320;-81
2024/01/16 04:29:58;;;;;;;;;;;;;;;3.28;100.00;100557.16;5002920;28;813;-81
2024/01/16 04:32:24;;;;;;;;;;;;;;;3.23;100.00;100556.53;5002906;28;742;-81
2024/01/16 04:34:50;;;;;;;;;;;;;;;3.15;100.00;100561.41;5001950;28;916;-81
2024/01/16 04:37:16;;;;;;;;;;;;;;;3.13;100.00;100553.53;5002598;28;1247;-81
2024/01/16 04:39:42;;;;;;;;;;;;;;;3.05;100.00;100550.44;5001476;28;838;-81
2024/01/16 04:42:08;;;;;;;;;;;;;;;3.17;100.00;100552.44;5002509;28;851;-81
2024/01/16 04:44:34;;;;;;;;;;;;;;;3.10;100.00;100547.53;5001769;28;1963;-81
2024/01/16 04:47:00;;;;;;;;;;;;;;;3.21;100.00;100546.94;5002489;28;1249;-81
2024/01/16 04:49:26;;;;;;;;;;;;;;;3.20;100.00;100548.75;5002233;28;821;-81
2024/01/16 04:51:52;;;;;;;;;;;;;;;3.19;100.00;100535.59;5001672;28;825;-81
2024/01/16 04:54:18;;;;;;;;;;;;;;;3.13;100.00;100542.06;5000143;28;902;-82
2024/01/16 04:56:44;;;;;;;;;;;;;;;3.32;100.00;100552.50;5000405;28;1345;-81
2024/01/16 04:59:10;;;;;;;;;;;;;;;3.42;100.00;100556.38;5000953;28;873;-81
2024/01/16 05:01:36;;;;;;;;;;;;;;;3.39;100.00;100556.53;5002165;28;849;-81
2024/01/16 05:04:03;;;;;;;;;;;;;;;3.43;100.00;100568.69;5002099;28;1907;-81
2024/01/16 05:06:29;;;;;;;;;;;;;;;3.48;100.00;100558.69;5000678;28;1190;-81
2024/01/16 05:08:55;;;;;;;;;;;;;;;3.45;100.00;100556.22;5002029;28;845;-81
2024/01/16 05:11:21;;;;;;;;;;;;;;;3.38;100.00;100558.34;5001936;28;900;-81
2024/01/16 05:13:47;;;;;;;;;;;;;;;3.30;100.00;100560.56;5001925;28;841;-81
2024/01/16 05:16:13;;;;;;;;;;;;;;;3.34;100.00;100564.78;5001004;28;1182;-82
2024/01/16 05:18:43;;;;;;;;;;;;;;;3.50;100.00;100566.56;5002170;28;797;-81
2024/01/16 05:21:08;;;;;;;;;;;;;;;3.45;100.00;100567.69;5002109;28;790;-81
2024/01/16 05:23:34;;;;;;;;;;;;;;;3.40;100.00;100572.38;5002155;28;1894;-82
2024/01/16 05:26:00;;;;;;;;;;;;;;;3.41;100.00;100579.38;5001004;28;1201;-81
2024/01/16 05:28:26;;;;;;;;;;;;;;;3.48;100.00;100579.91;5001415;28;915;-82
2024/01/16 05:30:52;;;;;;;;;;;;;;;3.58;100.00;100581.09;5001924;28;745;-81
2024/01/16 05:33:18;;;;;;;;;;;;;;;3.58;100.00;100567.84;5001837;28;659;-81
2024/01/16 05:35:44;;;;;;;;;;;;;;;3.56;100.00;100563.56;5001461;28;1192;-82
2024/01/16 05:38:12;;;;;;;;;;;;;;;3.54;100.00;100566.31;5002270;28;915;-82
2024/01/16 05:40:39;;;;;;;;;;;;;;;3.59;100.00;100569.56;5002713;28;793;-81
2024/01/16 05:43:05;;;;;;;;;;;;;;;3.48;100.00;100569.28;5000902;28;823;-82
2024/01/16 05:45:31;;;;;;;;;;;;;;;3.52;100.00;100562.00;5001475;28;2085;-82
2024/01/16 05:47:57;;;;;;;;;;;;;;;3.51;100.00;100576.22;5002294;28;915;-81
2024/01/16 05:50:23;;;;;;;;;;;;;;;3.44;100.00;100567.75;5000878;28;900;-81
2024/01/16 05:52:49;;;;;;;;;;;;;;;3.89;100.00;100572.25;5003095;28;813;-79
2024/01/16 05:55:15;;;;;;;;;;;;;;;4.86;100.00;100570.06;5003458;28;844;-79
2024/01/16 05:57:43;;;;;;;;;;;;;;;5.22;100.00;100588.22;5004789;28;919;-80
2024/01/16 06:00:10;;;;;;;;;;;;;;;5.41;100.00;100578.13;5004289;28;938;-80
2024/01/16 06:02:35;;;;;;;;;;;;;;;5.52;100.00;100581.91;5004219;28;883;-80
2024/01/16 06:05:02;;;;;;;;;;;;;;;5.65;100.00;100574.84;5002402;28;1871;-80
2024/01/16 06:07:28;;;;;;;;;;;;;;;5.60;100.00;100576.94;5004941;28;1285;-80
2024/01/16 06:09:54;;;;;;;;;;;;;;;5.56;100.00;100575.44;5004290;28;934;-80
2024/01/16 06:12:20;;;;;;;;;;;;;;;5.48;100.00;100571.44;5003531;28;947;-80
2024/01/16 06:14:46;;;;;;;;;;;;;;;5.32;100.00;100561.91;5001790;28;925;-80
2024/01/16 06:17:12;;;;;;;;;;;;;;;5.36;100.00;100564.25;5003729;28;1276;-80
2024/01/16 06:19:38;;;;;;;;;;;;;;;5.23;100.00;100551.84;5003170;28;936;-80
2024/01/16 06:22:04;;;;;;;;;;;;;;;5.25;100.00;100560.56;5002266;28;907;-80
2024/01/16 06:24:36;;;;;;;;;;;;;;;5.23;100.00;100549.19;5000980;28;1955;-81
2024/01/16 06:27:05;;;;;;;;;;;;;;;5.24;100.00;100554.41;5002148;28;1249;-80
2024/01/16 06:29:31;;;;;;;;;;;;;;;5.27;100.00;100558.66;5001827;28;802;-80
2024/01/16 06:31:57;;;;;;;;;;;;;;;5.35;100.00;100553.72;5002112;28;908;-80
2024/01/16 06:34:23;;;;;;;;;;;;;;;5.20;100.00;100558.19;5000967;28;864;-80
2024/01/16 06:36:49;;;;;;;;;;;;;;;5.21;100.00;100551.06;5001095;28;1264;-80
2024/01/16 06:39:15;;;;;;;;;;;;;;;5.04;100.00;100557.44;5001962;28;828;-80
2024/01/16 06:41:41;;;;;;;;;;;;;;;4.85;100.00;100547.94;5002378;28;794;-80
2024/01/16 06:44:07;;;;;;;;;;;;;;;4.92;100.00;100556.41;5016190;28;1961;-80
2024/01/16 06:46:34;;;;;;;;;;;;;;;4.98;100.00;100550.69;5000154;28;1181;-80
2024/01/16 06:49:00;;;;;;;;;;;;;;;4.97;100.00;100556.13;5002707;28;877;-80
2024/01/16 06:51:27;;;;;;;;;;;;;;;5.13;100.00;100557.72;5001104;28;900;-81
2024/01/16 06:53:53;;;;;;;;;;;;;;;5.28;100.00;100555.91;5002687;28;914;-80
2024/01/16 06:56:19;;;;;;;;;;;;;;;5.52;100.00;100565.97;4999844;28;1326;-80
2024/01/16 06:58:45;;;;;;;;;;;;;;;5.57;100.00;100569.16;5001652;28;840;-80
2024/01/16 07:01:11;;;;;;;;;;;;;;;5.42;100.00;100558.56;5000800;28;805;-80
2024/01/16 07:03:37;;;;;;;;;;;;;;;5.38;100.00;100567.66;5001891;28;749;-80
2024/01/16 07:06:03;;;;;;;;;;;;;;;5.38;100.00;100561.50;5001963;28;1933;-80
2024/01/16 07:08:29;;;;;;;;;;;;;;;5.38;100.00;100578.31;5001209;28;915;-80
2024/01/16 07:10:56;;;;;;;;;;;;;;;5.16;100.00;100577.94;5001243;28;785;-80
2024/01/16 07:13:22;;;;;;;;;;;;;;;5.00;100.00;100577.19;5001234;28;860;-81
2024/01/16 07:15:48;;;;;;;;;;;;;;;4.97;100.00;100577.38;4998913;28;1210;-80
2024/01/16 07:18:14;;;;;;;;;;;;;;;4.81;100.00;100583.63;5000452;28;793;-80
2024/01/16 07:20:40;;;;;;;;;;;;;;;4.71;100.00;100582.47;4999204;28;869;-80
2024/01/16 07:23:06;;;;;;;;;;;;;;;4.78;100.00;100586.47;5000939;28;841;-78
2024/01/16 07:25:32;;;;;;;;;;;;;;;4.81;100.00;100586.28;5001859;28;1879;-80
2024/01/16 07:27:58;;;;;;;;;;;;;;;4.93;100.00;100586.50;5004200;28;738;-79
2024/01/16 07:30:24;;;;;;;;;;;;;;;4.96;100.00;100579.19;5002693;28;963;-80
2024/01/16 07:32:51;;;;;;;;;;;;;;;4.73;100.00;100585.06;5002767;28;876;-80
2024/01/16 07:35:17;;;;;;;;;;;;;;;4.78;100.00;100590.94;5002024;28;1180;-80
2024/01/16 07:37:43;;;;;;;;;;;;;;;4.80;100.00;100589.88;5002050;28;738;-80
2024/01/16 07:40:10;;;;;;;;;;;;;;;4.56;100.00;100597.53;5002857;28;895;-80
2024/01/16 07:42:36;;;;;;;;;;;;;;;4.46;100.00;100593.72;5002631;28;694;-80
2024/01/16 07:45:04;;;;;;;;;;;;;;;4.53;100.00;100600.38;5001470;28;1887;-80
2024/01/16 07:47:31;;;;;;;;;;;;;;;4.46;100.00;100591.06;5018446;28;1289;-80
2024/01/16 07:49:58;;;;;;;;;;;;;;;4.52;100.00;100598.69;5017739;28;904;-80
2024/01/16 07:52:23;;;;;;;;;;;;;;;4.59;100.00;100602.66;5003570;28;785;-80
2024/01/16 07:54:49;;;;;;;;;;;;;;;4.70;100.00;100606.47;5001167;28;852;-80
2024/01/16 07:57:15;;;;;;;;;;;;;;;4.44;100.00;100608.91;5000595;28;1207;-80
2024/01/16 07:59:41;;;;;;;;;;;;;;;4.36;100.00;100602.31;5006395;28;927;-80
2024/01/16 08:02:08;;;;;;;;;;;;;;;4.46;100.00;100606.16;5006881;28;877;-80
2024/01/16 08:04:35;;;;;;;;;;;;;;;4.32;100.00;100607.78;5004615;28;1903;-80
2024/01/16 08:07:01;;;;;;;;;;;;;;;4.31;100.00;100611.38;5005194;28;1170;-80
2024/01/16 08:09:27;;;;;;;;;;;;;;;4.39;100.00;100610.09;5021688;28;902;-80
2024/01/16 08:11:53;;;;;;;;;;;;;;;4.48;100.00;100606.91;5004659;28;831;-79
2024/01/16 08:14:19;;;;;;;;;;;;;;;4.31;100.00;100618.50;5004327;28;880;-80
2024/01/16 08:16:45;;;;;;;;;;;;;;;4.37;100.00;100607.53;5003896;28;1218;-80
2024/01/16 08:19:11;;;;;;;;;;;;;;;4.38;100.00;100606.59;5008306;28;895;-80
2024/01/16 08:21:37;;;;;;;;;;;;;;;4.28;100.00;100611.59;5005316;28;866;-80
2024/01/16 08:24:03;;;;;;;;;;;;;;;4.32;100.00;100607.78;5005899;28;840;-80
2024/01/16 08:26:29;;;;;;;;;;;;;;;4.41;100.00;100613.50;5005766;28;1902;-80
2024/01/16 08:28:55;;;;;;;;;;;;;;;4.44;100.00;100611.56;5005927;28;833;-80
2024/01/16 08:31:21;;;;;;;;;;;;;;;4.57;100.00;100609.00;5006283;28;762;-80
2024/01/16 08:33:48;;;;;;;;;;;;;;;4.58;100.00;100613.38;5003913;28;818;-79
2024/01/16 08:36:15;;;;;;;;;;;;;;;4.76;100.00;100614.94;5005069;28;1193;-80
2024/01/16 08:38:41;;;;;;;;;;;;;;;4.60;100.00;100622.97;5007778;28;805;-80
2024/01/16 08:41:07;;;;;;;;;;;;;;;4.64;100.00;100618.34;5009329;28;856;-80
2024/01/16 08:43:33;;;;;;;;;;;;;;;4.68;100.00;100624.31;5009017;28;798;-80
2024/01/16 08:45:59;;;;;;;;;;;;;;;4.49;100.00;100628.06;5009278;28;1898;-80
2024/01/16 08:48:25;;;;;;;;;;;;;;;4.71;100.00;100630.28;5008595;28;837;-80
2024/01/16 08:50:54;;;;;;;;;;;;;;;4.57;100.00;100628.47;5009960;28;904;-80
2024/01/16 08:53:23;;;;;;;;;;;;;;;4.61;100.00;100632.63;5008850;28;789;-80
2024/01/16 08:55:49;;;;;;;;;;;;;;;4.63;100.00;100640.53;5005477;28;1182;-80
2024/01/16 08:58:15;;;;;;;;;;;;;;;4.65;100.00;100627.16;5005220;28;927;-80
2024/01/16 09:00:41;;;;;;;;;;;;;;;4.63;100.00;100637.88;5005324;28;856;-80
2024/01/16 09:03:07;;;;;;;;;;;;;;;4.50;100.00;100645.69;5006573;28;880;-80
2024/01/16 09:05:38;;;;;;;;;;;;;;;4.52;100.00;100646.50;5004869;28;1898;-80
2024/01/16 09:08:04;;;;;;;;;;;;;;;4.72;100.00;100653.28;5003667;28;1182;-79
2024/01/16 09:10:30;;;;;;;;;;;;;;;4.75;100.00;100650.44;5019526;28;945;-80
2024/01/16 09:12:56;;;;;;;;;;;;;;;4.83;100.00;100653.50;5006077;28;710;-80
2024/01/16 09:15:22;;;;;;;;;;;;;;;4.97;100.00;100647.34;5007425;28;1257;-80
2024/01/16 09:17:48;;;;;;;;;;;;;;;4.81;100.00;100644.72;5010750;28;773;-80
2024/01/16 09:20:14;;;;;;;;;;;;;;;4.85;100.00;100640.97;5009354;28;842;-80
2024/01/16 09:22:40;;;;;;;;;;;;;;;4.78;100.00;100649.38;5011305;28;750;-80
2024/01/16 09:25:06;;;;;;;;;;;;;;;4.92;100.00;100649.44;5011530;28;1882;-80
2024/01/16 09:27:32;;;;;;;;;;;;;;;4.92;100.00;100643.22;5011437;28;1162;-80
2024/01/16 09:29:58;;;;;;;;;;;;;;;5.01;100.00;100655.97;5009761;28;898;-80
2024/01/16 09:32:24;;;;;;;;;;;;;;;4.94;100.00;100649.34;5006747;28;951;-80
2024/01/16 09:34:50;;;;;;;;;;;;;;;4.87;100.00;100656.81;5004488;28;833;-79
2024/01/16 09:37:16;;;;;;;;;;;;;;;4.84;100.00;100647.22;5005108;28;1253;-80
2024/01/16 09:39:43;;;;;;;;;;;;;;;4.91;100.00;100653.00;5003825;28;861;-79
2024/01/16 09:42:09;;;;;;;;;;;;;;;4.98;100.00;100657.03;5005033;28;753;-80
2024/01/16 09:44:35;;;;;;;;;;;;;;;5.27;100.00;100657.91;5003883;28;1957;-79
2024/01/16 09:47:03;;;;;;;;;;;;;;;5.22;100.00;100662.66;5004397;28;1211;-80
2024/01/16 09:49:29;;;;;;;;;;;;;;;5.18;100.00;100661.13;5006553;28;880;-80
2024/01/16 09:51:59;;;;;;;;;;;;;;;5.28;100.00;100661.41;5005270;28;880;-80
2024/01/16 09:54:26;;;;;;;;;;;;;;;5.36;100.00;100665.31;5004990;28;899;-80
2024/01/16 09:56:57;;;;;;;;;;;;;;;5.43;100.00;100652.50;5004488;28;1181;-80
2024/01/16 09:59:25;;;;;;;;;;;;;;;5.60;100.00;100657.59;5005998;28;549;-80
2024/01/16 10:01:55;;;;;;;;;;;;;;;5.65;100.00;100654.69;5006427;28;872;-80
2024/01/16 10:04:21;;;;;;;;;;;;;;;5.71;100.00;100648.97;5004927;28;895;-81
2024/01/16 10:06:49;;;;;;;;;;;;;;;5.61;100.00;100661.16;5004729;28;1890;-80
2024/01/16 10:09:15;;;;;;;;;;;;;;;5.70;100.00;100658.78;5004322;28;738;-80
2024/01/16 10:11:42;;;;;;;;;;;;;;;5.60;100.00;100649.63;5012620;28;789;-80
2024/01/16 10:14:08;;;;;;;;;;;;;;;5.36;100.00;100652.03;5012826;28;785;-80
2024/01/16 10:17:12;;;;;;;;;;;;;;;5.31;100.00;100648.81;5012649;28;1280;-80
2024/01/16 10:19:48;;;;;;;;;;;;;;;5.45;100.00;100647.94;5009265;28;698;-80
2024/01/16 10:22:20;;;;;;;;;;;;;;;5.52;100.00;100649.28;5019196;28;781;-80
2024/01/16 10:24:46;;;;;;;;;;;;;;;5.65;100.00;100642.22;5019013;28;1890;-80
2024/01/16 10:27:16;;;;;;;;;;;;;;;5.67;100.00;100647.44;5003073;28;1190;-80
2024/01/16 10:29:56;;;;;;;;;;;;;;;5.57;100.00;100646.31;5004074;28;592;-80
2024/01/16 10:32:34;;;;;;;;;;;;;;;5.32;100.00;100644.34;5004263;28;880;-79
2024/01/16 10:35:06;;;;;;;;;;;;;;;5.38;100.00;100636.81;5016726;28;908;-79
2024/01/16 10:37:48;;;;;;;;;;;;;;;5.46;100.00;100647.00;5001374;28;1304;-80
2024/01/16 10:40:18;;;;;;;;;;;;;;;5.39;100.00;100638.53;5001672;28;825;-80
2024/01/16 10:42:48;;;;;;;;;;;;;;;5.51;100.00;100650.22;5001423;28;883;-80
2024/01/16 10:45:20;;;;;;;;;;;;;;;5.36;100.00;100644.03;5000329;28;1894;-80
2024/01/16 10:47:46;;;;;;;;;;;;;;;5.24;100.00;100647.47;5016948;28;874;-80
2024/01/16 10:50:12;;;;;;;;;;;;;;;5.26;100.00;100664.19;5000128;28;944;-79
2024/01/16 10:52:48;;;;;;;;;;;;;;;5.27;100.00;100654.41;5001126;28;824;-79
2024/01/16 10:55:40;;;;;;;;;;;;;;;5.30;100.00;100660.38;5000110;28;800;-79
2024/01/16 10:58:07;;;;;;;;;;;;;;;5.31;100.00;100656.78;5001474;28;1511;-80
2024/01/16 11:00:39;;;;;;;;;;;;;;;5.14;100.00;100667.59;5016347;28;856;-79
2024/01/16 11:03:10;;;;;;;;;;;;;;;5.22;100.00;100659.16;5000628;28;693;-79
2024/01/16 11:05:37;;;;;;;;;;;;;;;5.19;100.00;100655.72;4999793;28;1867;-79
2024/01/16 11:08:05;;;;;;;;;;;;;;;5.29;100.00;100649.84;5016670;28;1114;-79
2024/01/16 11:10:35;;;;;;;;;;;;;;;5.14;100.00;100646.31;5000151;28;903;-79
2024/01/16 11:13:02;;;;;;;;;;;;;;;5.27;100.00;100649.06;5016156;28;977;-79
2024/01/16 11:15:28;;;;;;;;;;;;;;;5.12;100.00;100662.38;5000474;28;1238;-79
2024/01/16 11:17:55;;;;;;;;;;;;;;;5.04;100.00;100651.34;5015552;28;868;-79
2024/01/16 11:20:23;;;;;;;;;;;;;;;5.16;100.00;100647.09;5000561;28;829;-79
2024/01/16 11:22:50;;;;;;;;;;;;;;;5.27;100.00;100646.41;5000903;28;789;-79
2024/01/16 11:25:18;;;;;;;;;;;;;;;5.33;100.00;100641.59;4999387;28;1883;-79
2024/01/16 11:27:50;;;;;;;;;;;;;;;5.46;100.00;100639.00;4999597;28;808;-79
2024/01/16 11:30:30;;;;;;;;;;;;;;;5.39;100.00;100643.00;4999537;28;886;-79
2024/01/16 11:32:56;;;;;;;;;;;;;;;5.28;100.00;100637.50;5000344;28;545;-79
2024/01/16 11:35:36;;;;;;;;;;;;;;;5.33;100.00;100636.28;4999087;28;1244;-79
2024/01/16 11:38:19;;;;;;;;;;;;;;;5.24;100.00;100647.47;4999417;28;510;-79
2024/01/16 11:40:45;;;;;;;;;;;;;;;5.33;100.00;100643.41;4998635;28;763;-79
2024/01/16 11:43:30;;;;;;;;;;;;;;;5.32;100.00;100641.69;4999508;28;789;-79
2024/01/16 11:45:57;;;;;;;;;;;;;;;5.28;100.00;100648.97;4998269;28;1902;-79
2024/01/16 11:48:24;;;;;;;;;;;;;;;5.37;100.00;100642.25;4998363;28;806;-79
2024/01/16 11:50:50;;;;;;;;;;;;;;;5.51;100.00;100636.94;5014691;28;849;-79
2024/01/16 11:53:39;;;;;;;;;;;;;;;5.62;100.00;100636.25;4999152;28;800;-79
2024/01/16 11:56:20;;;;;;;;;;;;;;;5.57;100.00;100633.88;5013927;28;1198;-79
2024/01/16 11:59:08;;;;;;;;;;;;;;;5.60;100.00;100633.66;5000170;28;672;-79
2024/01/16 12:01:35;;;;;;;;;;;;;;;5.48;100.00;100634.44;4999559;28;515;-79
2024/01/16 12:04:07;;;;;;;;;;;;;;;5.36;100.00;100633.41;4998048;28;859;-79
2024/01/16 12:06:35;;;;;;;;;;;;;;;5.42;100.00;100634.84;4998252;28;1894;-79
2024/01/16 12:09:15;;;;;;;;;;;;;;;5.44;100.00;100631.13;4998885;28;891;-79
2024/01/16 12:11:43;;;;;;;;;;;;;;;5.44;100.00;100630.28;4997776;28;757;-79
2024/01/16 12:14:10;;;;;;;;;;;;;;;5.52;100.00;100632.47;5014546;28;832;-79
2024/01/16 12:16:37;;;;;;;;;;;;;;;5.41;100.00;100618.03;4999398;28;1179;-79
2024/01/16 12:19:10;;;;;;;;;;;;;;;5.40;100.00;100623.41;4999843;28;820;-79
2024/01/16 12:21:41;;;;;;;;;;;;;;;5.35;100.00;100622.88;5014850;28;901;-79
2024/01/16 12:24:07;;;;;;;;;;;;;;;5.38;100.00;100622.66;4999308;28;774;-79
2024/01/16 12:26:33;;;;;;;;;;;;;;;5.40;100.00;100621.63;5014486;28;1894;-79
2024/01/16 12:29:00;;;;;;;;;;;;;;;5.51;100.00;100623.63;5019895;28;931;-79
2024/01/16 12:31:29;;;;;;;;;;;;;;;5.52;100.00;100624.47;5003478;28;879;-79
2024/01/16 12:34:07;;;;;;;;;;;;;;;5.40;100.00;100612.78;5019816;28;877;-79
2024/01/16 12:36:33;;;;;;;;;;;;;;;5.46;100.00;100618.59;5003382;28;1292;-79
2024/01/16 12:38:59;;;;;;;;;;;;;;;5.41;100.00;100598.56;5003968;28;801;-79
2024/01/16 12:41:36;;;;;;;;;;;;;;;5.38;100.00;100602.25;5020511;28;876;-79
2024/01/16 12:44:04;;;;;;;;;;;;;;;5.27;100.00;100601.22;5004218;28;542;-79
2024/01/16 12:46:30;;;;;;;;;;;;;;;5.40;100.00;100604.81;5008420;28;3360;-79
2024/01/16 12:49:03;;;;;;;;;;;;;;;5.49;100.00;100598.91;5011566;28;3233;-78
2024/01/16 12:51:29;;;;;;;;;;;;;;;5.43;100.00;100610.81;5011688;28;1214;-78
2024/01/16 12:54:10;;;;;;;;;;;;;;;5.47;100.00;100588.38;5015994;28;2937;-78